createdAt,value
2019-04-30T00:01:18.450Z,66.20
2019-04-30T00:04:09.837Z,64.35
2019-04-30T00:06:39.536Z,65.62
2019-04-30T00:09:09.860Z,65.17
2019-04-30T00:11:37.913Z,64.30
2019-04-30T00:14:06.235Z,68.75
2019-04-30T00:16:36.316Z,59.95
2019-04-30T00:19:06.045Z,65.85
2019-04-30T00:21:36.004Z,71.25
2019-04-30T00:24:08.676Z,69.30
2019-04-30T00:26:35.459Z,68.00
2019-04-30T00:29:05.106Z,75.22
2019-04-30T00:31:34.938Z,72.42
2019-04-30T00:34:05.055Z,71.57
2019-04-30T00:36:34.078Z,70.08
2019-04-30T00:39:07.145Z,71.15
2019-04-30T00:41:35.369Z,73.65
2019-04-30T00:44:05.394Z,74.27
2019-04-30T00:46:36.259Z,79.85
2019-04-30T00:49:11.240Z,76.45
2019-04-30T00:51:35.452Z,74.97
2019-04-30T00:54:05.699Z,71.87
2019-04-30T00:56:35.456Z,66.87
2019-04-30T00:59:07.016Z,76.37
2019-04-30T01:02:08.418Z,77.80
2019-04-30T01:04:41.963Z,78.90
2019-04-30T01:07:10.714Z,72.15
2019-04-30T01:09:49.503Z,74.70
2019-04-30T01:12:17.449Z,76.15
2019-04-30T01:14:46.543Z,85.28
2019-04-30T01:17:14.459Z,83.62
2019-04-30T01:19:45.910Z,85.00
2019-04-30T01:22:12.538Z,86.65
2019-04-30T01:24:40.421Z,85.32
2019-04-30T01:27:10.413Z,71.97
2019-04-30T01:29:44.102Z,76.40
2019-04-30T01:32:10.461Z,79.50
2019-04-30T01:34:39.510Z,76.80
2019-04-30T01:37:08.760Z,82.70
2019-04-30T01:39:36.718Z,81.95
2019-04-30T01:42:07.881Z,75.80
2019-04-30T01:44:34.680Z,77.62
2019-04-30T01:47:27.529Z,74.92
2019-04-30T01:49:51.290Z,77.87
2019-04-30T01:52:19.431Z,77.80
2019-04-30T01:54:49.049Z,74.95
2019-04-30T01:57:35.408Z,80.97
2019-04-30T02:00:29.377Z,79.25
2019-04-30T02:02:59.162Z,74.45
2019-04-30T02:05:28.719Z,77.10
2019-04-30T02:07:58.408Z,76.62
2019-04-30T02:10:28.567Z,75.30
2019-04-30T02:12:56.631Z,73.50
2019-04-30T02:15:24.503Z,77.40
2019-04-30T02:17:52.466Z,73.30
2019-04-30T02:20:20.683Z,70.17
2019-04-30T02:22:48.762Z,66.65
2019-04-30T02:25:16.685Z,68.62
2019-04-30T02:27:44.505Z,66.25
2019-04-30T02:30:12.665Z,69.80
2019-04-30T02:32:40.598Z,66.72
2019-04-30T02:35:15.678Z,62.95
2019-04-30T02:38:03.117Z,62.88
2019-04-30T02:40:34.332Z,59.42
2019-04-30T02:43:03.060Z,65.05
2019-04-30T02:45:32.567Z,62.33
2019-04-30T02:48:01.715Z,62.43
2019-04-30T02:50:31.369Z,70.28
2019-04-30T02:53:02.793Z,64.37
2019-04-30T02:55:44.043Z,68.00
2019-04-30T02:58:12.429Z,63.85
2019-04-30T03:00:40.766Z,69.55
2019-04-30T03:03:10.252Z,61.65
2019-04-30T03:05:39.241Z,67.42
2019-04-30T03:08:09.655Z,55.95
2019-04-30T03:10:39.690Z,63.28
2019-04-30T03:13:09.668Z,58.05
2019-04-30T03:15:39.248Z,55.03
2019-04-30T03:18:14.187Z,53.48
2019-04-30T03:21:11.022Z,51.13
2019-04-30T03:23:39.221Z,53.85
2019-04-30T03:26:09.635Z,46.48
2019-04-30T03:28:39.483Z,48.42
2019-04-30T03:31:06.805Z,48.92
2019-04-30T03:33:34.842Z,52.50
2019-04-30T03:36:02.923Z,56.65
2019-04-30T03:38:31.112Z,54.90
2019-04-30T03:41:00.167Z,44.35
2019-04-30T03:43:30.176Z,46.10
2019-04-30T03:45:59.327Z,49.13
2019-04-30T03:48:29.446Z,45.73
2019-04-30T03:51:00.347Z,51.00
2019-04-30T03:53:29.680Z,43.65
2019-04-30T03:55:56.998Z,48.40
2019-04-30T03:58:24.845Z,44.98
2019-04-30T04:01:10.135Z,45.78
2019-04-30T04:04:00.461Z,43.42
2019-04-30T04:06:33.087Z,45.67
2019-04-30T04:09:14.892Z,47.58
2019-04-30T04:11:44.850Z,43.73
2019-04-30T04:14:12.741Z,41.42
2019-04-30T04:16:41.184Z,46.63
2019-04-30T04:19:09.681Z,44.08
2019-04-30T04:21:39.316Z,46.05
2019-04-30T04:24:10.418Z,47.60
2019-04-30T04:26:37.205Z,46.28
2019-04-30T04:29:05.282Z,46.20
2019-04-30T04:31:33.166Z,49.15
2019-04-30T04:34:01.170Z,43.05
2019-04-30T04:36:30.201Z,51.20
2019-04-30T04:39:00.163Z,46.23
2019-04-30T04:41:29.581Z,45.60
2019-04-30T04:44:00.123Z,47.40
2019-04-30T04:46:30.591Z,43.87
2019-04-30T04:48:59.609Z,46.85
2019-04-30T04:51:37.952Z,45.63
2019-04-30T04:54:00.080Z,43.48
2019-04-30T04:56:30.241Z,45.25
2019-04-30T04:58:59.986Z,44.88
2019-04-30T05:01:28.901Z,48.85
2019-04-30T05:03:59.022Z,47.38
2019-04-30T05:06:29.656Z,46.10
2019-04-30T05:08:59.481Z,46.28
2019-04-30T05:11:31.384Z,40.83
2019-04-30T05:13:58.923Z,46.00
2019-04-30T05:16:28.843Z,50.23
2019-04-30T05:18:58.967Z,46.25
2019-04-30T05:21:27.132Z,42.90
2019-04-30T05:23:55.109Z,46.58
2019-04-30T05:26:23.589Z,42.33
2019-04-30T05:28:52.993Z,49.13
2019-04-30T05:31:21.257Z,46.63
2019-04-30T05:33:49.353Z,43.23
2019-04-30T05:36:19.211Z,46.37
2019-04-30T05:38:48.726Z,45.25
2019-04-30T05:41:16.858Z,39.58
2019-04-30T05:43:44.704Z,45.20
2019-04-30T05:46:14.107Z,43.95
2019-04-30T05:48:44.029Z,36.75
2019-04-30T05:51:12.340Z,39.27
2019-04-30T05:53:40.167Z,43.40
2019-04-30T05:56:09.374Z,41.83
2019-04-30T05:58:39.552Z,39.38
2019-04-30T06:01:09.642Z,35.65
2019-04-30T06:03:38.621Z,36.23
2019-04-30T06:06:06.730Z,39.75
2019-04-30T06:08:41.654Z,34.18
2019-04-30T06:11:21.079Z,30.75
2019-04-30T06:14:14.683Z,31.65
2019-04-30T06:16:51.771Z,31.33
2019-04-30T06:19:19.968Z,28.57
2019-04-30T06:21:49.133Z,32.75
2019-04-30T06:24:18.757Z,28.47
2019-04-30T06:26:47.029Z,32.55
2019-04-30T06:29:14.907Z,31.00
2019-04-30T06:31:43.298Z,30.00
2019-04-30T06:34:12.132Z,36.73
2019-04-30T06:36:51.102Z,29.85
2019-04-30T06:39:10.231Z,33.50
2019-04-30T06:41:39.512Z,29.63
2019-04-30T06:44:09.675Z,26.37
2019-04-30T06:46:38.729Z,35.73
2019-04-30T06:49:09.482Z,32.75
2019-04-30T06:51:38.945Z,27.98
2019-04-30T06:54:08.574Z,31.93
2019-04-30T06:56:38.630Z,33.23
2019-04-30T06:59:09.186Z,35.35
2019-04-30T07:01:38.852Z,37.23
2019-04-30T07:04:07.153Z,33.98
2019-04-30T07:06:37.085Z,35.00
2019-04-30T07:09:20.836Z,33.85
2019-04-30T07:11:59.276Z,29.92
2019-04-30T07:14:29.164Z,35.70
2019-04-30T07:16:59.313Z,26.02
2019-04-30T07:19:32.888Z,31.62
2019-04-30T07:21:59.295Z,30.85
2019-04-30T07:24:26.934Z,36.30
2019-04-30T07:27:01.018Z,28.40
2019-04-30T07:29:24.745Z,29.35
2019-04-30T07:31:52.760Z,30.88
2019-04-30T07:34:21.362Z,29.37
2019-04-30T07:37:10.380Z,40.15
2019-04-30T07:39:23.395Z,32.25
2019-04-30T07:41:49.901Z,28.87
2019-04-30T07:44:32.683Z,26.07
2019-04-30T07:46:49.343Z,27.65
2019-04-30T07:49:20.537Z,24.92
2019-04-30T07:51:51.223Z,27.42
2019-04-30T07:54:18.958Z,29.32
2019-04-30T07:56:50.445Z,32.45
2019-04-30T07:59:19.938Z,25.40
2019-04-30T08:02:03.245Z,26.27
2019-04-30T08:04:51.223Z,36.33
2019-04-30T08:07:19.938Z,28.87
2019-04-30T08:09:49.305Z,28.38
2019-04-30T08:12:26.097Z,26.52
2019-04-30T08:14:49.441Z,23.25
2019-04-30T08:17:18.871Z,26.65
2019-04-30T08:19:49.020Z,26.70
2019-04-30T08:22:19.460Z,27.58
2019-04-30T08:24:49.188Z,25.45
2019-04-30T08:27:19.157Z,25.00
2019-04-30T08:29:49.873Z,28.52
2019-04-30T08:32:19.129Z,26.30
2019-04-30T08:34:47.357Z,32.00
2019-04-30T08:37:18.121Z,26.20
2019-04-30T08:39:45.868Z,27.17
2019-04-30T08:42:13.780Z,24.18
2019-04-30T08:44:41.733Z,23.65
2019-04-30T08:47:09.713Z,23.20
2019-04-30T08:49:40.074Z,22.50
2019-04-30T08:52:07.827Z,26.62
2019-04-30T08:54:35.686Z,21.07
2019-04-30T08:57:03.707Z,21.62
2019-04-30T08:59:31.503Z,20.15
2019-04-30T09:02:12.284Z,20.00
2019-04-30T09:04:32.989Z,21.15
2019-04-30T09:07:01.557Z,24.25
2019-04-30T09:09:29.756Z,21.52
2019-04-30T09:11:59.172Z,25.75
2019-04-30T09:14:29.532Z,19.65
2019-04-30T09:16:59.415Z,23.15
2019-04-30T09:19:29.578Z,22.87
2019-04-30T09:21:59.045Z,19.57
2019-04-30T09:24:30.668Z,21.12
2019-04-30T09:26:59.075Z,17.45
2019-04-30T09:29:29.336Z,17.10
2019-04-30T09:31:59.252Z,21.55
2019-04-30T09:34:29.054Z,21.93
2019-04-30T09:36:58.887Z,19.05
2019-04-30T09:39:29.380Z,18.02
2019-04-30T09:41:59.448Z,20.88
2019-04-30T09:44:30.571Z,21.55
2019-04-30T09:46:58.871Z,18.90
2019-04-30T09:49:29.254Z,19.30
2019-04-30T09:51:59.347Z,16.30
2019-04-30T09:54:29.001Z,18.77
2019-04-30T09:56:58.873Z,16.60
2019-04-30T09:59:28.880Z,18.10
2019-04-30T10:01:56.889Z,19.85
2019-04-30T10:04:25.227Z,15.45
2019-04-30T10:06:53.802Z,15.63
2019-04-30T10:09:21.950Z,14.35
2019-04-30T10:11:59.553Z,13.40
2019-04-30T10:14:27.693Z,16.97
2019-04-30T10:17:09.425Z,12.82
2019-04-30T10:19:39.332Z,14.60
2019-04-30T10:22:08.978Z,11.78
2019-04-30T10:24:37.139Z,14.70
2019-04-30T10:27:07.025Z,15.15
2019-04-30T10:29:35.377Z,18.67
2019-04-30T10:32:03.358Z,15.75
2019-04-30T10:34:31.286Z,12.90
2019-04-30T10:37:02.590Z,16.00
2019-04-30T10:39:30.103Z,15.18
2019-04-30T10:41:58.134Z,16.02
2019-04-30T10:44:26.943Z,16.15
2019-04-30T10:46:55.009Z,17.92
2019-04-30T10:49:23.126Z,14.38
2019-04-30T10:51:51.244Z,14.73
2019-04-30T10:54:26.073Z,14.68
2019-04-30T10:56:51.330Z,11.73
2019-04-30T10:59:19.344Z,15.88
2019-04-30T11:01:49.193Z,17.07
2019-04-30T11:04:18.324Z,15.13
2019-04-30T11:06:46.307Z,13.75
2019-04-30T11:09:14.256Z,16.65
2019-04-30T11:11:42.558Z,13.08
2019-04-30T11:14:10.631Z,13.53
2019-04-30T11:16:38.921Z,13.68
2019-04-30T11:19:09.146Z,12.25
2019-04-30T11:21:37.090Z,13.22
2019-04-30T11:24:05.676Z,14.80
2019-04-30T11:26:35.059Z,13.58
2019-04-30T11:29:03.825Z,17.12
2019-04-30T11:31:41.657Z,16.07
2019-04-30T11:34:09.894Z,12.30
2019-04-30T11:36:39.009Z,15.20
2019-04-30T11:39:12.130Z,12.30
2019-04-30T11:41:40.492Z,13.95
2019-04-30T11:44:09.343Z,11.88
2019-04-30T11:47:21.574Z,14.85
2019-04-30T11:49:49.666Z,13.15
2019-04-30T11:52:20.212Z,14.98
2019-04-30T11:54:51.675Z,16.87
2019-04-30T11:57:18.708Z,12.75
2019-04-30T11:59:47.349Z,13.22
2019-04-30T12:02:29.540Z,15.32
2019-04-30T12:04:57.531Z,12.73
2019-04-30T12:07:38.258Z,17.05
2019-04-30T12:10:29.635Z,18.50
2019-04-30T12:12:58.701Z,11.55
2019-04-30T12:15:26.744Z,13.65
2019-04-30T12:17:54.806Z,14.28
2019-04-30T12:20:23.852Z,14.43
2019-04-30T12:22:51.882Z,13.63
2019-04-30T12:25:20.101Z,12.17
2019-04-30T12:27:48.840Z,10.80
2019-04-30T12:30:20.740Z,12.43
2019-04-30T12:32:49.436Z,9.73
2019-04-30T12:35:18.063Z,11.63
2019-04-30T12:37:45.949Z,11.03
2019-04-30T12:40:28.570Z,9.50
2019-04-30T12:42:44.611Z,10.13
2019-04-30T12:45:12.848Z,9.07
2019-04-30T12:47:45.889Z,7.83
2019-04-30T12:50:20.146Z,6.87
2019-04-30T12:52:55.278Z,6.53
2019-04-30T12:55:42.927Z,7.40
2019-04-30T12:58:11.052Z,6.43
2019-04-30T13:00:39.282Z,9.00
2019-04-30T13:03:07.652Z,7.75
2019-04-30T13:05:35.771Z,8.25
2019-04-30T13:08:04.244Z,8.30
2019-04-30T13:10:33.561Z,7.70
2019-04-30T13:13:02.205Z,8.03
2019-04-30T13:15:30.489Z,6.62
2019-04-30T13:17:58.644Z,7.87
2019-04-30T13:20:29.013Z,6.20
2019-04-30T13:22:58.766Z,6.60
2019-04-30T13:25:32.377Z,7.42
2019-04-30T13:28:02.209Z,6.37
2019-04-30T13:30:31.331Z,7.10
2019-04-30T13:33:14.115Z,6.13
2019-04-30T13:35:42.142Z,5.37
2019-04-30T13:38:18.657Z,5.75
2019-04-30T13:41:12.149Z,7.95
2019-04-30T13:43:58.820Z,7.50
2019-04-30T13:46:28.485Z,7.53
2019-04-30T13:48:56.663Z,7.30
2019-04-30T13:51:24.567Z,6.47
2019-04-30T13:53:53.206Z,7.97
2019-04-30T13:56:21.750Z,6.80
2019-04-30T13:58:49.635Z,9.07
2019-04-30T14:01:18.831Z,5.30
2019-04-30T14:03:59.262Z,8.37
2019-04-30T14:06:29.321Z,6.33
2019-04-30T14:08:59.722Z,6.33
2019-04-30T14:11:27.718Z,6.40
2019-04-30T14:13:56.549Z,6.53
2019-04-30T14:16:25.715Z,6.90
2019-04-30T14:18:53.632Z,6.30
2019-04-30T14:21:32.259Z,6.03
2019-04-30T14:23:51.257Z,7.83
2019-04-30T14:26:19.404Z,6.80
2019-04-30T14:28:48.969Z,6.47
2019-04-30T14:31:18.659Z,4.70
2019-04-30T14:33:47.280Z,8.40
2019-04-30T14:36:15.248Z,5.53
2019-04-30T14:38:43.374Z,7.63
2019-04-30T14:41:12.026Z,5.40
2019-04-30T14:43:50.989Z,5.30
2019-04-30T14:46:39.653Z,5.73
2019-04-30T14:49:27.619Z,5.47
2019-04-30T14:51:56.324Z,6.00
2019-04-30T14:54:35.646Z,5.10
2019-04-30T14:57:18.055Z,4.40
2019-04-30T15:00:08.780Z,4.90
2019-04-30T15:02:40.253Z,6.23
2019-04-30T15:05:08.971Z,4.97
2019-04-30T15:07:37.111Z,5.30
2019-04-30T15:10:05.889Z,5.43
2019-04-30T15:12:33.840Z,5.10
2019-04-30T15:15:01.913Z,5.43
2019-04-30T15:17:29.977Z,5.47
2019-04-30T15:19:58.781Z,4.83
2019-04-30T15:22:29.070Z,5.03
2019-04-30T15:24:59.097Z,5.37
2019-04-30T15:27:28.858Z,5.30
2019-04-30T15:29:57.462Z,9.30
2019-04-30T15:32:25.584Z,4.97
2019-04-30T15:34:53.474Z,6.03
2019-04-30T15:37:23.803Z,5.93
2019-04-30T15:39:52.392Z,5.83
2019-04-30T15:42:22.693Z,5.20
2019-04-30T15:44:50.747Z,7.10
2019-04-30T15:47:21.046Z,7.43
2019-04-30T15:49:48.954Z,7.73
2019-04-30T15:52:18.794Z,5.93
2019-04-30T15:54:47.040Z,6.53
2019-04-30T15:57:15.105Z,5.67
2019-04-30T15:59:43.823Z,5.30
2019-04-30T16:02:21.506Z,4.50
2019-04-30T16:05:07.776Z,5.93
2019-04-30T16:07:40.757Z,4.63
2019-04-30T16:10:22.804Z,4.60
2019-04-30T16:13:00.747Z,4.83
2019-04-30T16:15:29.781Z,8.17
2019-04-30T16:17:59.801Z,4.10
2019-04-30T16:20:29.853Z,5.53
2019-04-30T16:22:59.088Z,5.13
2019-04-30T16:25:27.186Z,4.07
2019-04-30T16:27:55.153Z,4.53
2019-04-30T16:30:23.255Z,4.30
2019-04-30T16:32:51.246Z,4.30
2019-04-30T16:35:19.714Z,4.23
2019-04-30T16:37:49.628Z,6.00
2019-04-30T16:40:19.031Z,5.10
2019-04-30T16:42:49.006Z,4.73
2019-04-30T16:45:18.931Z,5.33
2019-04-30T16:47:47.605Z,4.17
2019-04-30T16:50:16.530Z,5.93
2019-04-30T16:52:45.652Z,4.93
2019-04-30T16:55:14.187Z,4.80
2019-04-30T16:57:42.189Z,4.30
2019-04-30T17:00:13.116Z,4.83
2019-04-30T17:02:44.113Z,6.17
2019-04-30T17:05:19.846Z,5.20
2019-04-30T17:08:13.542Z,4.77
2019-04-30T17:11:07.290Z,4.77
2019-04-30T17:13:45.431Z,3.63
2019-04-30T17:16:15.764Z,4.83
2019-04-30T17:18:43.768Z,3.70
2019-04-30T17:21:12.135Z,5.17
2019-04-30T17:23:40.800Z,3.80
2019-04-30T17:26:08.803Z,4.73
2019-04-30T17:28:38.498Z,10.03
2019-04-30T17:31:06.621Z,4.00
2019-04-30T17:33:34.637Z,4.05
2019-04-30T17:36:02.609Z,4.77
2019-04-30T17:38:30.839Z,3.95
2019-04-30T17:40:59.149Z,3.97
2019-04-30T17:43:27.302Z,3.37
2019-04-30T17:45:55.458Z,4.28
2019-04-30T17:48:23.669Z,4.55
2019-04-30T17:50:51.747Z,5.00
2019-04-30T17:53:19.749Z,5.67
2019-04-30T17:55:49.083Z,4.57
2019-04-30T17:58:17.275Z,3.60
2019-04-30T18:00:50.201Z,4.20
2019-04-30T18:03:18.971Z,5.22
2019-04-30T18:05:49.195Z,3.30
2019-04-30T18:08:17.701Z,3.90
2019-04-30T18:10:45.658Z,6.10
2019-04-30T18:13:14.180Z,4.70
2019-04-30T18:15:42.616Z,4.45
2019-04-30T18:18:25.490Z,4.37
2019-04-30T18:21:19.155Z,5.03
2019-04-30T18:24:15.809Z,6.50
2019-04-30T18:26:57.511Z,3.87
2019-04-30T18:29:26.852Z,4.72
2019-04-30T18:31:55.234Z,3.60
2019-04-30T18:34:23.474Z,3.83
2019-04-30T18:36:51.590Z,3.67
2019-04-30T18:39:20.410Z,3.22
2019-04-30T18:41:48.715Z,4.20
2019-04-30T18:44:16.779Z,4.25
2019-04-30T18:46:45.385Z,4.37
2019-04-30T18:49:13.701Z,6.17
2019-04-30T18:51:42.845Z,5.78
2019-04-30T18:54:11.585Z,4.62
2019-04-30T18:56:39.840Z,5.35
2019-04-30T18:59:08.758Z,7.78
2019-04-30T19:01:37.108Z,5.37
2019-04-30T19:04:05.648Z,5.53
2019-04-30T19:06:33.725Z,6.08
2019-04-30T19:09:29.501Z,5.83
2019-04-30T19:12:19.269Z,4.67
2019-04-30T19:15:10.031Z,8.98
2019-04-30T19:18:03.658Z,5.08
2019-04-30T19:20:44.032Z,6.08
2019-04-30T19:23:12.158Z,7.83
2019-04-30T19:25:40.255Z,7.85
2019-04-30T19:28:13.658Z,5.33
2019-04-30T19:30:39.033Z,5.85
2019-04-30T19:33:08.718Z,6.58
2019-04-30T19:35:37.076Z,6.72
2019-04-30T19:38:05.221Z,6.08
2019-04-30T19:40:33.210Z,5.97
2019-04-30T19:43:02.089Z,6.42
2019-04-30T19:45:51.222Z,4.53
2019-04-30T19:48:19.498Z,9.78
2019-04-30T19:50:48.865Z,5.47
2019-04-30T19:53:21.371Z,6.10
2019-04-30T19:55:49.107Z,6.30
2019-04-30T19:58:29.112Z,6.45
2019-04-30T20:00:46.979Z,5.75
2019-04-30T20:03:14.980Z,8.35
2019-04-30T20:05:43.002Z,5.30
2019-04-30T20:08:12.195Z,8.43
2019-04-30T20:10:40.297Z,9.30
2019-04-30T20:13:08.257Z,5.80
2019-04-30T20:15:36.368Z,6.83
2019-04-30T20:18:04.348Z,13.28
2019-04-30T20:20:32.808Z,7.92
2019-04-30T20:23:01.054Z,6.92
2019-04-30T20:25:29.305Z,7.92
2019-04-30T20:27:57.982Z,7.60
2019-04-30T20:30:26.217Z,8.50
2019-04-30T20:32:54.819Z,7.65
2019-04-30T20:35:23.578Z,7.58
2019-04-30T20:38:10.227Z,7.05
2019-04-30T20:43:28.615Z,8.58
2019-04-30T20:45:58.367Z,11.97
2019-04-30T20:48:26.630Z,7.08
2019-04-30T20:50:54.505Z,7.12
2019-04-30T20:53:23.589Z,7.20
2019-04-30T20:55:51.729Z,7.10
2019-04-30T20:58:20.746Z,7.42
2019-04-30T21:01:00.685Z,9.40
2019-04-30T21:03:19.667Z,12.47
2019-04-30T21:05:47.869Z,11.83
2019-04-30T21:08:15.858Z,7.75
2019-04-30T21:10:44.484Z,7.87
2019-04-30T21:13:12.444Z,10.18
2019-04-30T21:15:41.767Z,7.45
2019-04-30T21:18:10.562Z,7.58
2019-04-30T21:20:38.915Z,8.35
2019-04-30T21:23:07.023Z,9.75
2019-04-30T21:25:36.104Z,9.30
2019-04-30T21:28:04.498Z,12.43
2019-04-30T21:30:34.380Z,12.33
2019-04-30T21:33:32.453Z,11.60
2019-04-30T21:36:29.555Z,11.68
2019-04-30T21:38:59.428Z,11.03
2019-04-30T21:41:29.664Z,9.50
2019-04-30T21:43:59.104Z,10.48
2019-04-30T21:46:29.327Z,10.95
2019-04-30T21:48:58.714Z,10.45
2019-04-30T21:51:27.094Z,11.70
2019-04-30T21:53:55.890Z,11.63
2019-04-30T21:56:25.283Z,9.28
2019-04-30T21:58:53.756Z,9.10
2019-04-30T22:01:26.008Z,10.10
2019-04-30T22:03:54.804Z,9.73
2019-04-30T22:06:24.630Z,9.13
2019-04-30T22:08:53.319Z,8.48
2019-04-30T22:11:21.977Z,13.80
2019-04-30T22:13:50.504Z,10.60
2019-04-30T22:16:20.442Z,9.20
2019-04-30T22:18:49.223Z,9.88
2019-04-30T22:21:18.565Z,10.95
2019-04-30T22:23:46.904Z,8.75
2019-04-30T22:26:15.019Z,8.60
2019-04-30T22:28:43.259Z,11.20
2019-04-30T22:31:11.427Z,11.45
2019-04-30T22:33:39.585Z,10.38
2019-04-30T22:36:25.589Z,11.88
2019-04-30T22:39:12.083Z,10.63
2019-04-30T22:41:40.369Z,11.53
2019-04-30T22:44:08.268Z,9.90
2019-04-30T22:46:36.171Z,15.20
2019-04-30T22:49:04.172Z,11.38
2019-04-30T22:51:32.179Z,12.43
2019-04-30T22:54:00.273Z,13.38
2019-04-30T22:56:28.238Z,12.25
2019-04-30T22:58:56.834Z,12.65
2019-04-30T23:01:42.775Z,11.73
2019-04-30T23:04:15.779Z,13.25
2019-04-30T23:06:43.823Z,16.10
2019-04-30T23:09:13.068Z,15.08
2019-04-30T23:11:41.012Z,15.65
2019-04-30T23:14:08.871Z,14.98
2019-04-30T23:16:37.069Z,16.40
2019-04-30T23:19:04.993Z,12.28
2019-04-30T23:21:33.714Z,17.77
2019-04-30T23:24:01.597Z,14.93
2019-04-30T23:26:29.624Z,14.47
2019-04-30T23:28:57.586Z,12.78
2019-04-30T23:31:25.927Z,14.70
2019-04-30T23:33:53.815Z,14.00
2019-04-30T23:36:21.956Z,13.75
2019-04-30T23:38:50.622Z,14.68
2019-04-30T23:41:18.527Z,14.00
2019-04-30T23:43:46.398Z,14.28
2019-04-30T23:46:14.409Z,16.00
2019-04-30T23:48:42.440Z,14.53
2019-04-30T23:51:10.407Z,17.00
2019-04-30T23:53:38.286Z,16.73
2019-04-30T23:56:06.243Z,18.70
2019-04-30T23:58:34.192Z,12.93
